Time;durP1;ratioP1;P1;durP2;ratioP2;P2;SDS_P1;SDS_P2;PMS_P1;PMS_P2;Temp;Humidity;BMP_temperature;BMP_pressure;BME280_temperature;BME280_humidity;BME280_pressure;Samples;Min_cycle;Max_cycle;Signal;HPM_P1;HPM_P2
2022/10/23 00:01:35;;;;;;;9.38;4.35;;;;;;;13.94;78.37;100666.50;4211309;28;20118;-61
2022/10/23 00:03:38;;;;;;;12.57;4.78;;;;;;;13.93;77.66;100665.66;4213768;28;20036;-62
2022/10/23 00:05:41;;;;;;;7.43;4.82;;;;;;;13.95;77.52;100671.75;4201873;28;20519;-62
2022/10/23 00:07:45;;;;;;;10.23;4.78;;;;;;;13.95;77.49;100666.50;4212898;28;20528;-61
2022/10/23 00:09:47;;;;;;;10.90;4.85;;;;;;;13.92;76.94;100660.41;4214264;28;20036;-62
2022/10/23 00:11:51;;;;;;;8.82;4.47;;;;;;;13.88;77.94;100656.03;4211804;28;20093;-62
2022/10/23 00:13:56;;;;;;;8.85;3.58;;;;;;;13.84;77.95;100655.13;4206090;28;20036;-61
2022/10/23 00:15:59;;;;;;;8.35;4.25;;;;;;;13.85;78.12;100654.28;4212915;28;20035;-62
2022/10/23 00:18:02;;;;;;;10.27;4.82;;;;;;;13.86;78.17;100655.19;4214027;28;20036;-61
2022/10/23 00:20:06;;;;;;;10.25;4.78;;;;;;;13.88;77.63;100649.06;4214035;28;20050;-62
2022/10/23 00:22:11;;;;;;;10.82;5.40;;;;;;;13.87;77.50;100642.13;4214031;28;20048;-62
2022/10/23 00:24:15;;;;;;;9.70;5.30;;;;;;;13.88;77.58;100636.00;4208967;28;20068;-61
2022/10/23 00:26:19;;;;;;;11.07;4.68;;;;;;;13.85;77.73;100625.53;4203724;28;20066;-61
2022/10/23 00:28:21;;;;;;;9.40;5.18;;;;;;;13.86;78.31;100627.28;4195889;28;20052;-62
2022/10/23 00:30:24;;;;;;;14.65;4.65;;;;;;;13.85;77.95;100633.38;4212367;28;20047;-62
2022/10/23 00:32:27;;;;;;;11.75;4.38;;;;;;;13.84;78.22;100636.84;4212354;28;20044;-62
2022/10/23 00:34:30;;;;;;;12.73;4.57;;;;;;;13.85;78.32;100633.38;4212210;28;20501;-62
2022/10/23 00:36:33;;;;;;;7.35;4.32;;;;;;;13.82;78.59;100632.50;4195755;28;20078;-62
2022/10/23 00:38:37;;;;;;;9.25;4.40;;;;;;;13.79;78.78;100633.34;4212637;28;20043;-62
2022/10/23 00:40:43;;;;;;;14.48;5.25;;;;;;;13.76;78.51;100638.56;4212674;28;20036;-62
2022/10/23 00:42:46;;;;;;;8.93;4.35;;;;;;;13.78;78.71;100632.50;4203851;28;20040;-62
2022/10/23 00:45:09;;;;;;;6.78;4.07;;;;;;;13.80;78.66;100629.88;4203761;28;20097;-62
2022/10/23 00:47:13;;;;;;;8.48;4.95;;;;;;;13.78;78.76;100622.03;4229406;28;20039;-62
2022/10/23 00:49:16;;;;;;;10.02;4.93;;;;;;;13.78;78.87;100627.28;4212634;28;20039;-62
2022/10/23 00:51:20;;;;;;;11.23;4.88;;;;;;;13.82;78.46;100627.28;4211472;28;20089;-62
2022/10/23 00:53:23;;;;;;;9.52;4.78;;;;;;;13.81;78.76;100621.16;4203754;28;20040;-62
2022/10/23 00:55:27;;;;;;;11.13;5.45;;;;;;;13.80;78.26;100619.44;4212420;28;20117;-62
2022/10/23 00:57:31;;;;;;;8.50;4.50;;;;;;;13.78;78.80;100619.44;4212601;28;20122;-63
2022/10/23 00:59:34;;;;;;;8.10;4.10;;;;;;;13.77;78.50;100611.59;4212521;28;20055;-62
2022/10/23 01:01:37;;;;;;;10.95;3.97;;;;;;;13.77;78.69;100606.38;4212213;28;20032;-62
2022/10/23 01:03:40;;;;;;;10.93;4.68;;;;;;;13.78;78.38;100606.38;4210843;28;20051;-62
2022/10/23 01:05:49;;;;;;;9.90;4.93;;;;;;;13.80;77.91;100608.97;4206785;28;20032;-62
2022/10/23 01:07:56;;;;;;;9.98;4.43;;;;;;;13.77;78.38;100615.06;4190317;28;20041;-62
2022/10/23 01:10:05;;;;;;;10.85;5.15;;;;;;;13.76;78.36;100612.44;4195331;28;20090;-62
2022/10/23 01:12:15;;;;;;;8.05;4.10;;;;;;;13.74;78.57;100609.84;4212571;28;20268;-61
2022/10/23 01:14:27;;;;;;;8.15;5.00;;;;;;;13.70;78.77;100617.66;4215836;28;20405;-62
2022/10/23 01:16:39;;;;;;;7.18;4.35;;;;;;;13.69;78.91;100611.53;4209007;28;20043;-61
2022/10/23 01:18:47;;;;;;;9.45;5.13;;;;;;;13.69;79.26;100615.91;4214660;28;20039;-62
2022/10/23 01:20:56;;;;;;;11.10;4.95;;;;;;;13.67;78.77;100600.22;4198523;28;20044;-61
2022/10/23 01:23:12;;;;;;;13.15;5.20;;;;;;;13.71;78.88;100601.09;4216525;28;20032;-62
2022/10/23 01:25:28;;;;;;;8.13;4.78;;;;;;;13.67;78.34;100602.84;4215476;28;20036;-62
2022/10/23 01:27:36;;;;;;;5.88;4.00;;;;;;;13.66;79.06;100602.84;4206595;28;20032;-62
2022/10/23 01:29:43;;;;;;;12.35;4.30;;;;;;;13.68;78.63;100599.38;4198433;28;20076;-62
2022/10/23 01:31:50;;;;;;;8.75;4.78;;;;;;;13.69;78.60;100603.69;4199324;28;20037;-61
2022/10/23 01:33:58;;;;;;;8.27;4.15;;;;;;;13.68;78.61;100604.59;4198099;28;20123;-61
2022/10/23 01:36:05;;;;;;;6.28;3.75;;;;;;;13.64;79.07;100610.66;4215339;28;20093;-63
2022/10/23 01:38:13;;;;;;;13.20;5.25;;;;;;;13.65;78.59;100608.91;4211322;28;20090;-61
2022/10/23 01:40:23;;;;;;;14.55;4.50;;;;;;;13.64;78.97;100601.94;4214276;28;20036;-61
2022/10/23 01:42:32;;;;;;;11.73;3.75;;;;;;;13.61;79.34;100602.81;4214985;28;20547;-61
2022/10/23 01:44:41;;;;;;;9.38;4.53;;;;;;;13.61;79.00;100601.06;4197568;28;20047;-61
2022/10/23 01:46:46;;;;;;;11.18;5.03;;;;;;;13.59;78.10;100592.38;4215150;28;20032;-61
2022/10/23 01:48:53;;;;;;;10.77;4.88;;;;;;;13.59;78.75;100596.69;4214788;28;20032;-61
2022/10/23 01:51:00;;;;;;;10.43;5.07;;;;;;;13.52;78.48;100587.97;4214746;28;20089;-61
2022/10/23 01:53:03;;;;;;;14.48;5.25;;;;;;;13.50;78.12;100583.63;4197953;28;20487;-61
2022/10/23 01:55:10;;;;;;;11.48;5.13;;;;;;;13.46;78.42;100577.47;4214871;28;20068;-61
2022/10/23 01:57:17;;;;;;;8.15;4.45;;;;;;;13.45;77.98;100567.94;4214939;28;20043;-64
2022/10/23 01:59:24;;;;;;;12.30;4.75;;;;;;;13.47;78.27;100558.34;4206701;28;20036;-62
2022/10/23 02:01:31;;;;;;;17.48;5.75;;;;;;;13.48;78.30;100564.44;4214623;28;20032;-62
2022/10/23 02:03:37;;;;;;;8.23;4.05;;;;;;;13.43;78.72;100572.25;4214314;28;20582;-62
2022/10/23 02:05:40;;;;;;;7.97;3.90;;;;;;;13.43;78.22;100572.25;4214775;28;20043;-62
2022/10/23 02:07:43;;;;;;;6.55;4.25;;;;;;;13.42;78.50;100571.38;4197886;28;20037;-62
2022/10/23 02:09:46;;;;;;;8.60;4.30;;;;;;;13.43;78.15;100575.75;4197812;28;20094;-62
2022/10/23 02:11:54;;;;;;;12.70;4.57;;;;;;;13.46;79.07;100571.41;4212838;28;20089;-62
2022/10/23 02:14:03;;;;;;;9.55;4.28;;;;;;;13.47;79.20;100568.78;4214236;28;20036;-62
2022/10/23 02:16:13;;;;;;;12.45;4.60;;;;;;;13.45;78.34;100575.75;4214283;28;20055;-62
2022/10/23 02:18:34;;;;;;;11.63;5.20;;;;;;;13.47;78.55;100567.94;4205629;28;20043;-62
2022/10/23 02:20:41;;;;;;;8.27;4.20;;;;;;;13.47;78.67;100563.56;4197808;28;20067;-62
2022/10/23 02:22:58;;;;;;;11.77;4.07;;;;;;;13.48;78.50;100565.31;4213612;28;20133;-62
2022/10/23 02:25:08;;;;;;;5.82;3.80;;;;;;;13.39;78.84;100563.56;4206562;28;20032;-62
2022/10/23 02:27:20;;;;;;;16.65;4.88;;;;;;;13.37;79.57;100565.25;4214382;28;20028;-62
2022/10/23 02:29:31;;;;;;;9.10;4.80;;;;;;;13.38;78.79;100560.94;4214511;28;20115;-62
2022/10/23 02:31:34;;;;;;;13.98;5.15;;;;;;;13.34;79.16;100561.75;4214304;28;20086;-62
2022/10/23 02:33:39;;;;;;;9.10;4.85;;;;;;;13.37;79.14;100567.00;4214048;28;20036;-62
2022/10/23 02:35:42;;;;;;;;;;;;;;;13.22;79.31;100563.44;4214959;28;20040;-66
2022/10/23 02:37:56;;;;;;;8.00;4.18;;;;;;;13.23;79.28;100570.41;4208334;28;20289;-62
2022/10/23 02:40:02;;;;;;;11.80;4.45;;;;;;;13.29;78.80;100566.94;4214091;28;20482;-62
2022/10/23 02:42:21;;;;;;;8.80;4.45;;;;;;;13.28;78.58;100550.41;4214180;28;20044;-62
2022/10/23 02:44:32;;;;;;;12.07;4.55;;;;;;;13.31;78.57;100551.28;4213750;28;20043;-62
2022/10/23 02:46:44;;;;;;;6.70;4.25;;;;;;;13.32;78.66;100547.81;4213101;28;20040;-61
2022/10/23 02:48:58;;;;;;;9.45;4.47;;;;;;;13.28;78.70;100544.31;4206036;28;20040;-62
2022/10/23 02:51:06;;;;;;;8.75;4.20;;;;;;;13.28;78.84;100544.31;4210903;28;20046;-62
2022/10/23 02:53:16;;;;;;;12.88;4.88;;;;;;;13.26;79.30;100549.53;4215080;28;20040;-62
2022/10/23 02:55:31;;;;;;;10.30;4.28;;;;;;;13.26;78.96;100551.28;4208912;28;20071;-63
2022/10/23 02:57:40;;;;;;;10.05;5.03;;;;;;;13.26;79.38;100549.53;4228851;28;20036;-63
2022/10/23 02:59:52;;;;;;;11.93;4.95;;;;;;;13.30;78.69;100546.94;4212144;28;20587;-62
2022/10/23 03:02:02;;;;;;;7.53;4.38;;;;;;;13.29;78.87;100535.63;4213646;28;20514;-63
2022/10/23 03:04:10;;;;;;;9.38;4.15;;;;;;;13.30;78.99;100533.88;4213674;28;20036;-62
2022/10/23 03:06:13;;;;;;;6.40;4.22;;;;;;;13.28;78.46;100532.13;4212596;28;20028;-63
2022/10/23 03:08:16;;;;;;;7.88;3.53;;;;;;;13.26;79.06;100522.56;4213867;28;20040;-62
2022/10/23 03:10:19;;;;;;;9.20;3.60;;;;;;;13.24;78.93;100525.16;4196934;28;20044;-62
2022/10/23 03:12:22;;;;;;;9.55;4.35;;;;;;;13.26;78.77;100533.00;4213454;28;20378;-62
2022/10/23 03:14:25;;;;;;;7.13;4.47;;;;;;;13.27;78.56;100525.16;4213141;28;20135;-63
2022/10/23 03:16:28;;;;;;;9.55;4.07;;;;;;;13.26;78.38;100528.63;4212767;28;20040;-62
2022/10/23 03:18:30;;;;;;;6.63;4.50;;;;;;;13.28;78.78;100521.66;4207192;28;20062;-62
2022/10/23 03:20:36;;;;;;;8.33;4.27;;;;;;;13.26;78.66;100523.41;4227721;28;20044;-62
2022/10/23 03:22:40;;;;;;;8.23;3.97;;;;;;;13.25;78.75;100518.19;4213308;28;20305;-62
2022/10/23 03:24:43;;;;;;;7.50;3.88;;;;;;;13.19;79.22;100521.66;4213126;28;20040;-63
2022/10/23 03:26:47;;;;;;;9.18;4.30;;;;;;;13.13;79.36;100521.63;4229516;28;20066;-66
2022/10/23 03:28:50;;;;;;;9.65;3.88;;;;;;;13.13;79.36;100519.00;4206215;28;20040;-62
2022/10/23 03:30:55;;;;;;;6.80;3.95;;;;;;;13.14;79.16;100519.88;4213355;28;20131;-63
2022/10/23 03:32:58;;;;;;;10.93;4.15;;;;;;;13.14;79.31;100518.16;4214821;28;20032;-62
2022/10/23 03:35:01;;;;;;;8.25;4.00;;;;;;;13.13;79.35;100520.72;4196323;28;20052;-62
2022/10/23 03:37:06;;;;;;;11.20;4.03;;;;;;;13.14;79.50;100518.16;4213410;28;20048;-62
2022/10/23 03:39:08;;;;;;;7.57;3.95;;;;;;;13.09;79.59;100520.72;4208254;28;20387;-63
2022/10/23 03:41:11;;;;;;;10.35;4.40;;;;;;;13.12;79.57;100521.63;4212994;28;21179;-62
2022/10/23 03:43:14;;;;;;;9.27;3.92;;;;;;;13.11;79.50;100523.34;4212872;28;20040;-62
2022/10/23 03:45:17;;;;;;;9.70;4.32;;;;;;;13.06;79.67;100519.84;4196039;28;20044;-62
2022/10/23 03:47:20;;;;;;;9.02;4.47;;;;;;;13.06;79.34;100520.72;4212369;28;20127;-62
2022/10/23 03:49:23;;;;;;;11.98;4.20;;;;;;;13.05;79.56;100524.22;4196134;28;20044;-62
2022/10/23 03:51:26;;;;;;;10.52;4.25;;;;;;;13.02;79.28;100523.31;4196316;28;20048;-62
2022/10/23 03:53:31;;;;;;;7.75;3.50;;;;;;;13.02;79.12;100526.78;4212857;28;20551;-62
2022/10/23 03:55:36;;;;;;;10.82;4.75;;;;;;;13.03;79.63;100519.84;4212206;28;20062;-62
2022/10/23 03:57:39;;;;;;;8.45;3.92;;;;;;;13.03;78.96;100527.66;4204749;28;20032;-62
2022/10/23 03:59:42;;;;;;;9.20;3.80;;;;;;;13.02;78.97;100534.59;4213127;28;20485;-62
2022/10/23 04:01:45;;;;;;;8.00;3.90;;;;;;;12.92;79.43;100538.91;4213073;28;20039;-63
2022/10/23 04:03:48;;;;;;;6.55;4.03;;;;;;;12.83;79.40;100532.75;4212851;28;20044;-63
2022/10/23 04:05:52;;;;;;;10.65;4.75;;;;;;;12.75;79.97;100536.19;4212325;28;20040;-62
2022/10/23 04:07:57;;;;;;;7.78;4.13;;;;;;;12.74;80.03;100547.47;4196043;28;20453;-63
2022/10/23 04:10:01;;;;;;;8.60;4.18;;;;;;;12.77;80.06;100538.81;4212967;28;20028;-62
2022/10/23 04:12:05;;;;;;;9.15;4.40;;;;;;;12.79;80.26;100531.00;4212991;28;20043;-62
2022/10/23 04:14:10;;;;;;;5.97;4.28;;;;;;;12.86;79.73;100517.97;4195791;28;20146;-63
2022/10/23 04:16:13;;;;;;;8.13;4.53;;;;;;;12.89;79.26;100518.03;4229778;28;20043;-63
2022/10/23 04:18:16;;;;;;;8.05;4.88;;;;;;;12.88;79.11;100524.09;4211841;28;20046;-62
2022/10/23 04:20:19;;;;;;;8.43;4.43;;;;;;;12.90;79.19;100524.97;4211789;28;20067;-63
2022/10/23 04:22:22;;;;;;;8.52;4.53;;;;;;;12.91;78.93;100523.25;4208180;28;20137;-62
2022/10/23 04:24:29;;;;;;;9.68;4.97;;;;;;;12.90;79.02;100519.75;4204003;28;20047;-62
2022/10/23 04:26:33;;;;;;;10.25;5.03;;;;;;;12.90;77.99;100508.47;4212721;28;20032;-62
2022/10/23 04:28:36;;;;;;;9.95;4.55;;;;;;;12.89;78.59;100512.81;4211834;28;20036;-62
2022/10/23 04:30:40;;;;;;;10.73;5.00;;;;;;;12.88;78.16;100508.44;4212453;28;20097;-62
2022/10/23 04:32:45;;;;;;;11.48;4.53;;;;;;;12.86;78.35;100501.47;4213734;28;20043;-62
2022/10/23 04:34:50;;;;;;;10.18;4.80;;;;;;;12.84;78.74;100504.06;4213480;28;20058;-62
2022/10/23 04:36:52;;;;;;;8.55;5.07;;;;;;;12.85;78.49;100508.44;4212530;28;20494;-62
2022/10/23 04:38:55;;;;;;;6.55;4.35;;;;;;;12.88;78.49;100515.41;4212316;28;20421;-62
2022/10/23 04:40:58;;;;;;;8.80;4.32;;;;;;;12.86;78.35;100504.06;4211369;28;20055;-63
2022/10/23 04:43:03;;;;;;;12.55;4.95;;;;;;;12.88;78.44;100499.75;4212216;28;20032;-63
2022/10/23 04:45:10;;;;;;;7.97;4.95;;;;;;;12.89;78.48;100491.94;4195543;28;20047;-62
2022/10/23 04:47:16;;;;;;;9.23;4.95;;;;;;;12.86;78.42;100486.69;4212465;28;20123;-62
2022/10/23 04:49:30;;;;;;;6.72;4.25;;;;;;;12.81;78.00;100493.63;4196700;28;20502;-62
2022/10/23 04:51:52;;;;;;;10.43;4.40;;;;;;;12.78;78.30;100498.81;4211258;28;20042;-63
2022/10/23 04:54:04;;;;;;;6.10;4.07;;;;;;;12.77;78.35;100494.47;4204875;28;20071;-63
2022/10/23 04:56:25;;;;;;;6.38;4.15;;;;;;;12.79;78.69;100504.91;4213586;28;20044;-62
2022/10/23 04:58:38;;;;;;;7.93;4.40;;;;;;;12.78;78.72;100516.22;4229395;28;20040;-62
2022/10/23 05:00:42;;;;;;;8.73;4.07;;;;;;;12.79;78.96;100517.94;4212758;28;20405;-62
2022/10/23 05:02:48;;;;;;;8.23;4.15;;;;;;;12.75;79.48;100523.16;4203891;28;20043;-62
2022/10/23 05:04:52;;;;;;;12.30;4.03;;;;;;;12.69;79.69;100540.50;4195467;28;20051;-62
2022/10/23 05:07:13;;;;;;;10.77;5.15;;;;;;;12.66;79.95;100541.38;4195695;28;20050;-62
2022/10/23 05:09:35;;;;;;;6.38;3.90;;;;;;;12.69;80.13;100548.34;4212179;28;20047;-62
2022/10/23 05:11:57;;;;;;;7.97;4.60;;;;;;;12.73;80.09;100539.66;4204284;28;20054;-64
2022/10/23 05:14:01;;;;;;;7.55;4.68;;;;;;;12.79;79.86;100528.38;4211887;28;20039;-62
2022/10/23 05:16:04;;;;;;;13.43;5.63;;;;;;;12.93;79.22;100513.69;4212589;28;20409;-62
2022/10/23 05:18:14;;;;;;;6.93;4.05;;;;;;;12.95;78.79;100505.88;4212397;28;20073;-62
2022/10/23 05:20:23;;;;;;;8.73;4.78;;;;;;;12.90;79.01;100514.53;4195615;28;20109;-63
2022/10/23 05:22:30;;;;;;;6.97;4.07;;;;;;;12.91;79.18;100497.16;4210817;28;20105;-62
2022/10/23 05:24:33;;;;;;;14.60;5.65;;;;;;;12.97;79.30;100498.94;4211583;28;20622;-62
2022/10/23 05:26:37;;;;;;;6.95;4.45;;;;;;;12.95;79.17;100496.28;4229100;28;20044;-62
2022/10/23 05:28:42;;;;;;;18.30;4.65;;;;;;;12.95;79.42;100482.38;4212119;28;20036;-62
2022/10/23 05:30:50;;;;;;;12.23;4.68;;;;;;;12.96;79.21;100487.59;4210645;28;20489;-63
2022/10/23 05:32:54;;;;;;;8.18;4.72;;;;;;;12.90;79.11;100485.84;4224853;28;20035;-62
2022/10/23 05:35:02;;;;;;;7.72;4.22;;;;;;;12.90;79.58;100498.88;4211359;28;20510;-62
2022/10/23 05:37:09;;;;;;;8.93;3.55;;;;;;;12.91;79.38;100502.38;4211908;28;20044;-62
2022/10/23 05:39:14;;;;;;;11.80;5.72;;;;;;;12.89;79.51;100493.66;4222425;28;20118;-62
2022/10/23 05:41:17;;;;;;;5.88;4.10;;;;;;;12.91;79.29;100484.13;4210679;28;20097;-62
2022/10/23 05:43:20;;;;;;;6.60;4.47;;;;;;;13.00;78.81;100485.91;4211437;28;20094;-63
2022/10/23 05:45:26;;;;;;;7.35;3.88;;;;;;;12.92;78.44;100485.84;4212029;28;20040;-63
2022/10/23 05:47:49;;;;;;;7.60;4.68;;;;;;;12.84;79.12;100480.59;4213198;28;20425;-63
2022/10/23 05:50:12;;;;;;;6.78;4.00;;;;;;;12.78;79.54;100485.78;4212061;28;20456;-62
2022/10/23 05:52:39;;;;;;;7.85;3.83;;;;;;;12.75;79.57;100483.16;4211428;28;20071;-62
2022/10/23 05:54:50;;;;;;;9.80;4.80;;;;;;;12.82;79.27;100474.50;4208726;28;20479;-63
2022/10/23 05:57:16;;;;;;;12.27;5.47;;;;;;;12.93;78.77;100462.34;4194369;28;20063;-63
2022/10/23 05:59:26;;;;;;;8.95;4.88;;;;;;;12.89;78.33;100455.41;4210967;28;20036;-64
2022/10/23 06:01:46;;;;;;;9.07;4.40;;;;;;;12.80;79.06;100460.56;4198192;28;20098;-67
2022/10/23 06:04:00;;;;;;;8.80;3.78;;;;;;;12.75;79.07;100457.06;4215124;28;20089;-63
2022/10/23 06:06:23;;;;;;;6.10;3.95;;;;;;;12.72;79.19;100460.53;4212289;28;20044;-63
2022/10/23 06:08:25;;;;;;;9.75;4.28;;;;;;;12.74;79.50;100460.53;4210447;28;20062;-63
2022/10/23 06:10:28;;;;;;;7.85;4.18;;;;;;;12.76;79.60;100453.59;4214435;28;20036;-63
2022/10/23 06:12:34;;;;;;;7.00;3.83;;;;;;;12.77;79.50;100450.13;4213826;28;20101;-63
2022/10/23 06:14:37;;;;;;;7.75;3.95;;;;;;;12.76;79.40;100448.38;4213928;28;20575;-63
2022/10/23 06:16:40;;;;;;;8.38;4.05;;;;;;;12.75;79.54;100457.94;4219915;28;20146;-63
2022/10/23 06:18:44;;;;;;;5.30;3.83;;;;;;;12.75;79.35;100468.38;4212040;28;20032;-64
2022/10/23 06:20:51;;;;;;;7.50;4.65;;;;;;;12.76;79.45;100458.78;4188799;28;20051;-63
2022/10/23 06:23:03;;;;;;;10.45;4.60;;;;;;;12.79;79.42;100463.16;4211783;28;20040;-64
2022/10/23 06:25:25;;;;;;;8.15;4.47;;;;;;;12.79;79.33;100458.84;4210803;28;20370;-63
2022/10/23 06:27:30;;;;;;;10.07;5.03;;;;;;;12.76;79.52;100456.19;4208550;28;20048;-63
2022/10/23 06:29:33;;;;;;;7.88;4.43;;;;;;;12.76;79.35;100445.75;4212599;28;20158;-63
2022/10/23 06:31:36;;;;;;;8.00;4.57;;;;;;;12.75;79.70;100451.84;4212691;28;20044;-63
2022/10/23 06:33:40;;;;;;;7.88;4.07;;;;;;;12.79;79.30;100453.63;4198855;28;20040;-64
2022/10/23 06:35:44;;;;;;;;;;;;;;;12.68;79.45;100450.94;4175809;28;20040;-64
2022/10/23 06:37:50;;;;;;;7.50;4.15;;;;;;;12.73;79.64;100448.34;4192065;28;19971;-64
2022/10/23 06:40:02;;;;;;;7.28;4.05;;;;;;;12.76;79.40;100453.59;4173701;28;20041;-64
2022/10/23 06:42:14;;;;;;;7.40;3.80;;;;;;;12.76;79.44;100456.19;4158303;28;20116;-64
2022/10/23 06:44:43;;;;;;;9.23;4.60;;;;;;;12.78;79.60;100453.63;4164136;28;20532;-64
2022/10/23 06:46:51;;;;;;;8.00;4.03;;;;;;;12.80;79.25;100451.88;4171106;28;20569;-64
2022/10/23 06:49:14;;;;;;;9.68;5.32;;;;;;;12.81;79.66;100454.50;4179904;28;20049;-64
2022/10/23 06:51:22;;;;;;;6.95;4.15;;;;;;;12.83;79.42;100457.09;4179458;28;20487;-64
2022/10/23 06:53:27;;;;;;;9.98;4.93;;;;;;;12.84;79.78;100451.88;4178911;28;20068;-64
2022/10/23 06:55:39;;;;;;;10.57;5.07;;;;;;;12.85;79.32;100452.75;4162839;28;20049;-64
2022/10/23 06:57:44;;;;;;;8.13;3.95;;;;;;;12.88;79.46;100458.88;4178863;28;20075;-63
2022/10/23 06:59:48;;;;;;;7.32;4.07;;;;;;;12.88;79.52;100458.88;4195609;28;20032;-64
2022/10/23 07:01:51;;;;;;;9.30;4.75;;;;;;;12.90;79.55;100448.44;4195618;28;20036;-66
2022/10/23 07:03:54;;;;;;;7.32;3.60;;;;;;;12.93;79.93;100454.53;4194338;28;20041;-65
2022/10/23 07:06:01;;;;;;;5.85;3.15;;;;;;;12.95;79.68;100459.75;4179330;28;20040;-69
2022/10/23 07:08:05;;;;;;;6.72;3.90;;;;;;;12.99;79.69;100465.88;4179423;28;20459;-64
2022/10/23 07:10:16;;;;;;;8.82;4.35;;;;;;;13.03;79.73;100472.84;4179841;28;20048;-63
2022/10/23 07:12:22;;;;;;;7.43;3.90;;;;;;;13.03;79.65;100465.91;4172104;28;20053;-62
2022/10/23 07:14:34;;;;;;;11.55;4.93;;;;;;;13.06;79.50;100475.47;4184848;28;20347;-63
2022/10/23 07:16:38;;;;;;;9.07;4.95;;;;;;;13.10;79.69;100464.19;4178494;28;20079;-61
2022/10/23 07:18:41;;;;;;;9.32;4.53;;;;;;;13.13;79.49;100464.19;4179603;28;20033;-65
2022/10/23 07:20:58;;;;;;;6.78;4.30;;;;;;;13.19;79.72;100460.75;4174615;28;20068;-62
2022/10/23 07:23:01;;;;;;;8.75;4.93;;;;;;;13.22;79.58;100456.38;4178653;28;20033;-63
2022/10/23 07:25:10;;;;;;;8.18;3.97;;;;;;;13.19;79.47;100463.34;4174328;28;20083;-67
2022/10/23 07:27:15;;;;;;;10.48;4.40;;;;;;;13.10;80.15;100465.06;4178343;28;20091;-65
2022/10/23 07:29:19;;;;;;;13.40;5.22;;;;;;;13.14;79.89;100465.94;4165478;28;20845;-62
2022/10/23 07:31:25;;;;;;;7.97;4.50;;;;;;;13.18;80.93;100462.47;4155377;28;20105;-64
2022/10/23 07:34:09;;;;;;;8.23;4.70;;;;;;;13.15;81.04;100472.91;4178266;28;20044;-63
2022/10/23 07:36:12;;;;;;;8.98;4.60;;;;;;;13.16;80.63;100471.19;4178600;28;20108;-63
2022/10/23 07:38:16;;;;;;;14.25;6.10;;;;;;;13.22;80.37;100474.66;4178779;28;20044;-63
2022/10/23 07:40:24;;;;;;;10.02;6.15;;;;;;;13.28;80.43;100486.88;4150373;28;20116;-63
2022/10/23 07:42:32;;;;;;;9.20;5.90;;;;;;;13.20;81.15;100478.13;4178870;28;20032;-63
2022/10/23 07:44:34;;;;;;;11.75;5.68;;;;;;;13.14;80.81;100475.50;4172862;28;20037;-61
2022/10/23 07:46:37;;;;;;;10.13;6.22;;;;;;;13.15;80.89;100467.69;4180847;28;20040;-61
2022/10/23 07:48:42;;;;;;;14.25;6.90;;;;;;;13.33;80.17;100471.22;4178908;28;20043;-61
2022/10/23 07:50:45;;;;;;;10.00;5.15;;;;;;;13.42;79.64;100466.06;4178449;28;20406;-61
2022/10/23 07:52:48;;;;;;;10.45;6.20;;;;;;;13.34;80.64;100472.97;4174683;28;20049;-61
2022/10/23 07:54:52;;;;;;;8.63;4.95;;;;;;;13.31;80.30;100483.41;4170427;28;20155;-62
2022/10/23 07:56:56;;;;;;;9.40;5.55;;;;;;;13.37;80.71;100467.78;4167862;28;20078;-62
2022/10/23 07:59:11;;;;;;;12.07;6.18;;;;;;;13.44;80.45;100467.78;4171868;28;20384;-62
2022/10/23 08:01:18;;;;;;;10.60;6.20;;;;;;;13.54;79.91;100460.88;4176864;28;20573;-61
2022/10/23 08:03:21;;;;;;;9.18;4.95;;;;;;;13.58;79.19;100452.16;4172363;28;21449;-61
2022/10/23 08:05:25;;;;;;;11.70;6.80;;;;;;;13.76;79.02;100440.84;4174303;28;20037;-62
2022/10/23 08:07:33;;;;;;;10.50;6.45;;;;;;;13.77;78.43;100446.97;4176135;28;20044;-61
2022/10/23 08:09:36;;;;;;;10.05;5.40;;;;;;;13.74;79.53;100449.56;4172937;28;20106;-62
2022/10/23 08:11:39;;;;;;;9.23;5.25;;;;;;;13.70;79.80;100453.06;4173654;28;20044;-62
2022/10/23 08:13:43;;;;;;;10.30;6.20;;;;;;;13.74;79.46;100455.69;4159623;28;20046;-61
2022/10/23 08:15:49;;;;;;;9.30;5.60;;;;;;;13.82;79.49;100447.84;4176390;28;20047;-61
2022/10/23 08:18:16;;;;;;;15.65;6.20;;;;;;;13.77;79.87;100439.13;4174174;28;20133;-61
2022/10/23 08:20:19;;;;;;;10.65;5.30;;;;;;;13.82;79.01;100437.38;4173262;28;20040;-61
2022/10/23 08:22:22;;;;;;;9.27;5.38;;;;;;;13.89;78.83;100431.28;4174637;28;20518;-61
2022/10/23 08:24:25;;;;;;;11.73;5.68;;;;;;;13.98;78.81;100429.56;4175792;28;20044;-61
2022/10/23 08:26:29;;;;;;;8.35;6.07;;;;;;;14.05;78.63;100426.06;4177281;28;20029;-61
2022/10/23 08:28:32;;;;;;;10.18;5.88;;;;;;;14.10;78.33;100434.75;4194192;28;20533;-61
2022/10/23 08:30:37;;;;;;;11.18;5.78;;;;;;;14.12;78.77;100417.34;4175790;28;20656;-62
2022/10/23 08:32:42;;;;;;;11.88;5.70;;;;;;;14.16;79.38;100413.84;4173031;28;20064;-62
2022/10/23 08:34:47;;;;;;;11.50;6.22;;;;;;;14.21;78.31;100416.47;4175174;28;20114;-62
2022/10/23 08:36:49;;;;;;;9.18;4.30;;;;;;;14.25;78.77;100420.81;4185714;28;20070;-62
2022/10/23 08:38:54;;;;;;;11.50;6.43;;;;;;;14.30;78.94;100422.53;4176594;28;20041;-61
2022/10/23 08:41:00;;;;;;;10.55;5.35;;;;;;;14.36;79.06;100426.03;4178719;28;20506;-62
2022/10/23 08:43:33;;;;;;;11.27;5.28;;;;;;;14.43;78.95;100412.94;4176862;28;20561;-62
2022/10/23 08:45:55;;;;;;;13.90;5.38;;;;;;;14.49;78.78;100417.28;4174779;28;20040;-61
2022/10/23 08:48:39;;;;;;;16.67;5.05;;;;;;;14.61;78.30;100412.03;4167268;28;20211;-61
2022/10/23 08:51:11;;;;;;;10.90;5.15;;;;;;;14.54;79.09;100418.13;4168319;28;20158;-61
2022/10/23 08:53:18;;;;;;;10.25;5.60;;;;;;;14.60;78.70;100410.28;4179366;28;20048;-61
2022/10/23 08:55:26;;;;;;;12.98;4.82;;;;;;;14.70;78.55;100403.28;4174027;28;20033;-62
2022/10/23 08:57:34;;;;;;;7.20;4.65;;;;;;;14.67;78.01;100408.53;4173041;28;20138;-64
2022/10/23 08:59:47;;;;;;;10.45;5.10;;;;;;;14.68;79.18;100399.81;4170017;28;20116;-62
2022/10/23 09:01:55;;;;;;;11.82;4.88;;;;;;;14.71;79.03;100396.31;4170049;28;20094;-61
2022/10/23 09:04:00;;;;;;;13.10;5.40;;;;;;;14.66;78.70;100396.34;4170365;28;20091;-62
2022/10/23 09:06:27;;;;;;;10.32;5.50;;;;;;;14.70;78.36;100397.19;4172841;28;20660;-62
2022/10/23 09:08:44;;;;;;;10.88;4.95;;;;;;;14.68;79.64;100399.81;4164380;28;20049;-62
2022/10/23 09:11:02;;;;;;;12.48;4.63;;;;;;;14.76;79.10;100399.78;4170288;28;20036;-62
2022/10/23 09:13:21;;;;;;;9.15;4.30;;;;;;;14.76;79.27;100403.28;4170883;28;20045;-62
2022/10/23 09:15:29;;;;;;;7.50;3.70;;;;;;;14.87;78.65;100392.75;4170719;28;20038;-62
2022/10/23 09:17:36;;;;;;;7.35;3.83;;;;;;;14.94;78.33;100404.94;4167481;28;20045;-62
2022/10/23 09:19:41;;;;;;;8.25;3.75;;;;;;;15.06;77.72;100403.13;4170241;28;20376;-62
2022/10/23 09:21:48;;;;;;;9.13;3.30;;;;;;;15.08;77.47;100410.09;4169108;28;20080;-61
2022/10/23 09:23:51;;;;;;;8.82;3.25;;;;;;;15.12;77.38;100403.97;4167971;28;20060;-61
2022/10/23 09:25:55;;;;;;;10.40;3.13;;;;;;;15.29;75.95;100401.25;4168497;28;20049;-62
2022/10/23 09:28:00;;;;;;;6.15;2.90;;;;;;;15.27;75.45;100387.28;4168921;28;20048;-62
2022/10/23 09:30:08;;;;;;;6.63;2.38;;;;;;;15.38;74.96;100384.59;4169875;28;20475;-62
2022/10/23 09:32:11;;;;;;;;;;;;;;;15.48;75.20;100388.91;4170416;28;20503;-61
2022/10/23 09:34:19;;;;;;;4.43;2.40;;;;;;;15.74;75.04;100376.47;4171575;28;20293;-61
2022/10/23 09:36:26;;;;;;;7.25;2.95;;;;;;;15.77;74.30;100371.19;4180092;28;20525;-61
2022/10/23 09:38:31;;;;;;;9.25;2.88;;;;;;;15.79;74.25;100382.59;4179217;28;20064;-61
2022/10/23 09:40:40;;;;;;;9.52;2.60;;;;;;;16.00;73.79;100382.41;4177266;28;20072;-63
2022/10/23 09:42:58;;;;;;;11.07;2.70;;;;;;;16.00;74.12;100390.28;4179746;28;20068;-63
2022/10/23 09:45:01;;;;;;;4.47;2.47;;;;;;;15.98;74.52;100378.06;4180428;28;20041;-63
2022/10/23 09:47:10;;;;;;;4.23;2.07;;;;;;;15.95;74.57;100384.19;4186757;28;20047;-63
2022/10/23 09:49:22;;;;;;;6.38;2.20;;;;;;;15.97;74.75;100384.16;4194794;28;20322;-64
2022/10/23 09:51:27;;;;;;;4.25;2.35;;;;;;;15.99;75.02;100383.28;4180325;28;20783;-63